Time;durP1;ratioP1;P1;durP2;ratioP2;P2;SDS_P1;SDS_P2;PMS_P1;PMS_P2;Temp;Humidity;BMP_temperature;BMP_pressure;BME280_temperature;BME280_humidity;BME280_pressure;Samples;Min_cycle;Max_cycle;Signal;HPM_P1;HPM_P2
2023/09/10 00:01:29;;;;;;;5.43;2.78;;;;;;;23.25;100.00;56616.03;5108079;28;20709;-63
2023/09/10 00:03:56;;;;;;;3.80;2.92;;;;;;;23.25;100.00;56616.03;5109104;28;20235;-63
2023/09/10 00:06:22;;;;;;;6.07;2.53;;;;;;;23.25;100.00;56616.03;5108131;28;20669;-62
2023/09/10 00:08:49;;;;;;;7.47;2.50;;;;;;;23.25;100.00;56616.03;5109000;28;20196;-63
2023/09/10 00:11:16;;;;;;;2.90;2.70;;;;;;;23.25;100.00;56616.03;5108674;28;20590;-63
2023/09/10 00:13:43;;;;;;;3.13;2.92;;;;;;;;;;5110187;28;20269;-64
2023/09/10 00:16:10;;;;;;;4.07;2.67;;;;;;;23.25;100.00;56616.03;5110173;28;20262;-62
2023/09/10 00:18:37;;;;;;;3.63;3.33;;;;;;;23.25;100.00;56616.03;5114707;28;20228;-63
2023/09/10 00:21:04;;;;;;;7.13;2.30;;;;;;;23.25;100.00;56616.03;5113647;28;20216;-64
2023/09/10 00:23:31;;;;;;;5.95;2.42;;;;;;;23.25;100.00;56616.03;5114542;28;20203;-63
2023/09/10 00:25:58;;;;;;;4.05;3.65;;;;;;;23.25;100.00;56616.03;5114363;28;20228;-64
2023/09/10 00:28:24;;;;;;;3.22;2.92;;;;;;;23.25;100.00;56616.03;5114346;28;20196;-62
2023/09/10 00:30:55;;;;;;;7.20;3.20;;;;;;;23.25;100.00;56616.03;5114247;28;20201;-64
2023/09/10 00:33:22;;;;;;;34.13;17.80;;;;;;;23.25;100.00;56616.03;5114407;28;20281;-63
2023/09/10 00:35:48;;;;;;;5.38;3.47;;;;;;;23.25;100.00;56616.03;5113467;28;20290;-64
2023/09/10 00:38:15;;;;;;;6.95;6.25;;;;;;;23.25;100.00;56616.03;5114376;28;20253;-63
2023/09/10 00:40:42;;;;;;;5.63;5.05;;;;;;;23.25;100.00;56616.03;5113564;28;20569;-64
2023/09/10 00:43:09;;;;;;;9.57;7.50;;;;;;;-142.91;100.00;56616.03;5113848;28;20694;-63
2023/09/10 00:45:36;;;;;;;5.38;4.18;;;;;;;-142.91;100.00;56616.03;5113597;28;20224;-63
2023/09/10 00:48:05;;;;;;;5.47;4.93;;;;;;;-142.91;100.00;56616.03;5113901;28;20232;-62
2023/09/10 00:50:32;;;;;;;5.10;4.07;;;;;;;23.25;100.00;56616.03;5113792;28;20199;-63
2023/09/10 00:53:01;;;;;;;4.78;4.38;;;;;;;23.25;100.00;56616.03;5113698;28;20224;-63
2023/09/10 00:55:32;;;;;;;3.72;3.42;;;;;;;23.25;100.00;56616.03;5114038;28;20197;-64
2023/09/10 00:57:59;;;;;;;4.25;3.85;;;;;;;23.25;100.00;56616.03;5113736;28;20201;-63
2023/09/10 01:00:29;;;;;;;6.20;3.60;;;;;;;23.25;100.00;56616.03;5112935;28;20690;-64
2023/09/10 01:02:56;;;;;;;6.00;3.63;;;;;;;23.25;100.00;56616.03;5112797;28;20256;-63
2023/09/10 01:05:24;;;;;;;5.05;4.43;;;;;;;23.25;100.00;56616.03;5101152;28;20247;-62
2023/09/10 01:07:50;;;;;;;9.65;4.75;;;;;;;-142.91;100.00;56616.03;5113040;28;20201;-63
2023/09/10 01:10:17;;;;;;;6.30;4.63;;;;;;;;;;5113508;28;20621;-63
2023/09/10 01:12:54;;;;;;;4.55;4.13;;;;;;;-142.91;100.00;56616.03;5112634;28;20228;-62
2023/09/10 01:15:28;;;;;;;4.70;4.10;;;;;;;-142.91;100.00;56616.03;5113382;28;20682;-62
2023/09/10 01:18:01;;;;;;;8.30;4.85;;;;;;;-142.91;100.00;56616.03;5113144;28;20199;-63
2023/09/10 01:21:16;;;;;;;5.47;4.93;;;;;;;-142.91;100.00;56616.03;5113626;28;20200;-62
2023/09/10 01:23:51;;;;;;;4.22;3.50;;;;;;;-142.91;100.00;56616.03;5085356;28;20623;-63
2023/09/10 01:26:20;;;;;;;5.15;3.63;;;;;;;-142.91;100.00;56616.03;5113044;28;20562;-64
2023/09/10 01:28:46;;;;;;;3.40;3.10;;;;;;;-142.91;100.00;56616.03;5112903;28;20289;-63
2023/09/10 01:31:13;;;;;;;5.00;3.90;;;;;;;23.25;100.00;56616.03;5113039;28;20197;-64
2023/09/10 01:33:53;;;;;;;8.75;3.67;;;;;;;23.25;100.00;56616.03;5113170;28;20570;-63
2023/09/10 01:36:29;;;;;;;5.00;4.50;;;;;;;23.25;100.00;56616.03;5113292;28;20197;-62
2023/09/10 01:39:00;;;;;;;12.57;3.90;;;;;;;23.25;100.00;56616.03;5112582;28;20208;-64
2023/09/10 01:41:32;;;;;;;7.20;3.67;;;;;;;23.25;100.00;56616.03;5112809;28;20737;-64
2023/09/10 01:43:59;;;;;;;4.47;3.70;;;;;;;23.25;100.00;56616.03;5112388;28;20662;-62
2023/09/10 01:46:27;;;;;;;5.05;3.97;;;;;;;;;;5112926;28;20193;-63
2023/09/10 01:48:54;;;;;;;6.72;3.75;;;;;;;23.25;100.00;56616.03;5112606;28;20201;-64
2023/09/10 01:51:21;;;;;;;3.90;3.45;;;;;;;23.25;100.00;56616.03;5111601;28;20197;-63
2023/09/10 01:53:47;;;;;;;5.90;3.35;;;;;;;-142.91;100.00;56616.03;5110172;28;20225;-62
2023/09/10 01:56:14;;;;;;;5.32;2.97;;;;;;;-142.91;100.00;56616.03;5110821;28;20205;-63
2023/09/10 01:58:42;;;;;;;8.75;3.45;;;;;;;23.25;100.00;56616.03;5110484;28;20281;-63
2023/09/10 02:01:09;;;;;;;5.10;3.78;;;;;;;23.25;100.00;56616.03;5110735;28;20623;-63
2023/09/10 02:03:35;;;;;;;6.60;3.40;;;;;;;;;;5110120;28;20201;-62
2023/09/10 02:06:03;;;;;;;7.47;3.20;;;;;;;;;;5111150;28;20209;-62
2023/09/10 02:08:29;;;;;;;3.60;2.47;;;;;;;;;;5110277;28;20497;-62
2023/09/10 02:10:56;;;;;;;2.50;2.40;;;;;;;;;;5110841;28;20232;-63
2023/09/10 02:13:22;;;;;;;4.30;2.20;;;;;;;;;;5110533;28;20209;-62
2023/09/10 02:15:50;;;;;;;3.72;2.85;;;;;;;;;;5112421;28;20643;-63
2023/09/10 02:18:17;;;;;;;4.47;2.72;;;;;;;;;;5111755;28;20258;-64
2023/09/10 02:20:43;;;;;;;9.27;3.08;;;;;;;23.25;100.00;56616.03;5112354;28;20201;-63
2023/09/10 02:23:10;;;;;;;2.60;2.40;;;;;;;;;;5111568;28;20221;-64
2023/09/10 02:25:36;;;;;;;5.63;2.40;;;;;;;23.25;100.00;56616.03;5111964;28;20197;-63
2023/09/10 02:28:03;;;;;;;2.90;2.72;;;;;;;;;;5111701;28;20201;-63
2023/09/10 02:30:30;;;;;;;2.63;2.40;;;;;;;;;;5112074;28;20229;-63
2023/09/10 02:32:57;;;;;;;2.65;2.45;;;;;;;;;;5111516;28;20255;-64
2023/09/10 02:35:24;;;;;;;2.20;2.10;;;;;;;23.25;100.00;56616.03;5111577;28;20260;-63
2023/09/10 02:37:51;;;;;;;5.70;3.20;;;;;;;23.25;100.00;56616.03;5111446;28;20201;-62
2023/09/10 02:40:17;;;;;;;3.47;3.17;;;;;;;23.25;100.00;56616.03;5111148;28;20582;-62
2023/09/10 02:42:44;;;;;;;4.43;2.63;;;;;;;23.25;100.00;56616.03;5111358;28;20717;-62
2023/09/10 02:45:11;;;;;;;2.38;2.22;;;;;;;23.25;100.00;56616.03;5110885;28;20563;-63
2023/09/10 02:47:38;;;;;;;6.70;2.72;;;;;;;;;;5110287;28;20237;-63
2023/09/10 02:50:06;;;;;;;2.80;2.60;;;;;;;;;;5110526;28;20686;-64
2023/09/10 02:52:33;;;;;;;8.82;2.72;;;;;;;;;;5111425;28;20713;-63
2023/09/10 02:55:00;;;;;;;2.70;2.50;;;;;;;;;;5111395;28;20205;-63
2023/09/10 02:57:26;;;;;;;5.20;2.60;;;;;;;;;;5111904;28;20270;-63
2023/09/10 02:59:52;;;;;;;2.40;2.20;;;;;;;;;;5109779;28;20796;-64
2023/09/10 03:02:19;;;;;;;5.78;3.05;;;;;;;;;;5111556;28;20252;-63
2023/09/10 03:04:45;;;;;;;7.90;3.05;;;;;;;;;;5111698;28;20252;-62
2023/09/10 03:07:13;;;;;;;4.50;2.55;;;;;;;;;;5111858;28;20239;-63
2023/09/10 03:09:39;;;;;;;4.28;2.95;;;;;;;;;;5111144;28;20582;-63
2023/09/10 03:12:23;;;;;;;2.85;2.63;;;;;;;;;;5111905;28;20734;-64
2023/09/10 03:14:50;;;;;;;4.78;2.80;;;;;;;;;;5110880;28;20254;-63
2023/09/10 03:17:17;;;;;;;3.03;2.83;;;;;;;;;;5111904;28;20630;-64
2023/09/10 03:19:43;;;;;;;2.90;2.70;;;;;;;;;;5110538;28;20236;-64
2023/09/10 03:22:10;;;;;;;4.95;2.97;;;;;;;;;;5111283;28;20275;-64
2023/09/10 03:24:38;;;;;;;5.53;2.60;;;;;;;;;;5110629;28;20229;-63
2023/09/10 03:27:05;;;;;;;2.72;2.53;;;;;;;;;;5111113;28;20266;-63
2023/09/10 03:29:32;;;;;;;3.42;2.72;;;;;;;;;;5111042;28;20201;-64
2023/09/10 03:31:59;;;;;;;3.20;3.00;;;;;;;;;;5111039;28;20284;-63
2023/09/10 03:34:25;;;;;;;3.33;2.90;;;;;;;;;;5110751;28;20224;-62
2023/09/10 03:36:51;;;;;;;5.97;2.92;;;;;;;;;;5110710;28;20193;-63
2023/09/10 03:39:18;;;;;;;6.57;2.85;;;;;;;;;;5110880;28;20220;-63
2023/09/10 03:41:46;;;;;;;4.55;2.80;;;;;;;;;;5110660;28;20220;-64
2023/09/10 03:44:12;;;;;;;3.15;2.90;;;;;;;23.25;100.00;56616.03;5110364;28;20662;-61
2023/09/10 03:46:39;;;;;;;2.60;2.40;;;;;;;;;;5110706;28;20582;-63
2023/09/10 03:49:05;;;;;;;3.90;2.88;;;;;;;;;;5110556;28;20240;-64
2023/09/10 03:51:32;;;;;;;4.95;2.95;;;;;;;;;;5107875;28;20233;-62
2023/09/10 03:53:58;;;;;;;3.03;2.72;;;;;;;;;;5107169;28;20286;-62
2023/09/10 03:56:25;;;;;;;4.70;2.85;;;;;;;;;;5108422;28;20728;-64
2023/09/10 03:58:53;;;;;;;3.03;2.75;;;;;;;;;;5109290;28;20201;-62
2023/09/10 04:01:19;;;;;;;3.08;2.78;;;;;;;;;;5103198;28;20704;-62
2023/09/10 04:03:46;;;;;;;3.45;3.15;;;;;;;;;;5099616;28;20725;-63
2023/09/10 04:06:12;;;;;;;4.18;2.67;;;;;;;;;;5108395;28;20627;-62
2023/09/10 04:08:39;;;;;;;3.53;3.15;;;;;;;;;;5108500;28;20952;-63
2023/09/10 04:11:06;;;;;;;4.40;3.42;;;;;;;23.25;100.00;56616.03;5108667;28;20240;-62
2023/09/10 04:13:32;;;;;;;7.10;3.20;;;;;;;;;;5109677;28;20220;-62
2023/09/10 04:16:00;;;;;;;8.35;3.58;;;;;;;;;;5109955;28;20204;-62
2023/09/10 04:18:27;;;;;;;4.32;3.05;;;;;;;;;;5110690;28;20205;-63
2023/09/10 04:20:53;;;;;;;5.38;3.35;;;;;;;;;;5110087;28;20233;-64
2023/09/10 04:23:20;;;;;;;11.63;3.38;;;;;;;;;;5109989;28;20252;-64
2023/09/10 04:25:46;;;;;;;11.40;3.63;;;;;;;;;;5110061;28;20265;-64
2023/09/10 04:28:12;;;;;;;6.70;4.82;;;;;;;;;;5110493;28;20314;-64
2023/09/10 04:30:39;;;;;;;6.18;3.55;;;;;;;;;;5110024;28;20751;-63
2023/09/10 04:33:07;;;;;;;7.80;3.80;;;;;;;;;;5110348;28;20209;-63
2023/09/10 04:35:33;;;;;;;5.00;3.78;;;;;;;;;;5107727;28;20318;-63
2023/09/10 04:38:00;;;;;;;5.65;4.25;;;;;;;;;;5110455;28;20232;-64
2023/09/10 04:40:26;;;;;;;5.97;3.80;;;;;;;;;;5106935;28;20217;-63
2023/09/10 04:42:53;;;;;;;8.35;3.92;;;;;;;;;;5110539;28;20557;-63
2023/09/10 04:45:19;;;;;;;9.43;4.03;;;;;;;;;;5109750;28;20227;-63
2023/09/10 04:47:46;;;;;;;5.88;3.50;;;;;;;;;;5110119;28;20679;-62
2023/09/10 04:50:14;;;;;;;6.22;4.05;;;;;;;;;;5109650;28;20205;-63
2023/09/10 04:52:40;;;;;;;4.88;3.55;;;;;;;;;;5110172;28;20304;-63
2023/09/10 04:55:07;;;;;;;4.07;3.15;;;;;;;;;;5109901;28;20232;-62
2023/09/10 04:57:34;;;;;;;5.63;3.05;;;;;;;;;;5110156;28;20201;-63
2023/09/10 05:00:00;;;;;;;6.72;3.17;;;;;;;;;;5110032;28;20221;-62
2023/09/10 05:02:26;;;;;;;8.13;3.70;;;;;;;;;;5109306;28;20281;-62
2023/09/10 05:04:53;;;;;;;6.47;3.28;;;;;;;;;;5113201;28;20204;-63
2023/09/10 05:07:21;;;;;;;5.63;3.30;;;;;;;;;;5113796;28;20197;-63
2023/09/10 05:09:47;;;;;;;3.20;2.90;;;;;;;;;;5113608;28;20628;-63
2023/09/10 05:12:13;;;;;;;3.33;2.75;;;;;;;;;;5113762;28;20221;-64
2023/09/10 05:14:40;;;;;;;7.32;3.55;;;;;;;;;;5112889;28;20221;-63
2023/09/10 05:17:06;;;;;;;11.32;3.03;;;;;;;;;;5113690;28;20653;-63
2023/09/10 05:19:33;;;;;;;4.90;2.80;;;;;;;;;;5113058;28;20236;-61
2023/09/10 05:21:59;;;;;;;3.25;2.40;;;;;;;;;;5113651;28;20205;-62
2023/09/10 05:24:27;;;;;;;4.85;2.83;;;;;;;;;;5113171;28;20232;-63
2023/09/10 05:26:53;;;;;;;5.00;3.67;;;;;;;;;;5113780;28;20201;-63
2023/09/10 05:29:20;;;;;;;7.07;3.33;;;;;;;;;;5113167;28;20197;-63
2023/09/10 05:31:46;;;;;;;4.40;3.30;;;;;;;;;;5113443;28;20201;-63
2023/09/10 05:34:13;;;;;;;13.52;3.30;;;;;;;;;;5100458;28;20258;-64
2023/09/10 05:36:39;;;;;;;4.90;2.97;;;;;;;;;;5112624;28;20640;-62
2023/09/10 05:39:06;;;;;;;3.55;3.25;;;;;;;;;;5112490;28;20693;-62
2023/09/10 05:41:34;;;;;;;4.30;3.50;;;;;;;;;;5113657;28;20258;-62
2023/09/10 05:44:00;;;;;;;3.60;2.95;;;;;;;;;;5112662;28;20304;-63
2023/09/10 05:46:27;;;;;;;3.38;3.13;;;;;;;;;;5113321;28;20266;-64
2023/09/10 05:48:53;;;;;;;12.48;4.55;;;;;;;;;;5112361;28;20707;-64
2023/09/10 05:51:19;;;;;;;10.85;4.03;;;;;;;;;;5111217;28;20586;-63
2023/09/10 05:53:46;;;;;;;7.00;5.60;;;;;;;;;;5110827;28;20217;-63
2023/09/10 05:56:12;;;;;;;11.77;5.45;;;;;;;;;;5110839;28;20228;-62
2023/09/10 05:58:40;;;;;;;6.20;4.60;;;;;;;;;;5109127;28;20239;-62
2023/09/10 06:01:07;;;;;;;7.18;4.45;;;;;;;;;;5110958;28;20636;-62
2023/09/10 06:03:33;;;;;;;4.05;3.75;;;;;;;;;;5110716;28;20224;-63
2023/09/10 06:06:01;;;;;;;8.25;3.60;;;;;;;;;;5111156;28;20204;-62
2023/09/10 06:08:28;;;;;;;7.47;4.00;;;;;;;;;;5111208;28;20224;-64
2023/09/10 06:10:54;;;;;;;4.10;3.67;;;;;;;;;;5111144;28;20201;-65
2023/09/10 06:13:21;;;;;;;5.57;3.95;;;;;;;;;;5097993;28;20333;-64
2023/09/10 06:15:49;;;;;;;4.75;4.32;;;;;;;;;;5111680;28;20201;-65
2023/09/10 06:18:17;;;;;;;8.60;5.43;;;;;;;;;;5112571;28;20585;-65
2023/09/10 06:20:44;;;;;;;10.32;4.30;;;;;;;;;;5111306;28;20758;-65
2023/09/10 06:23:10;;;;;;;5.45;4.63;;;;;;;;;;5110761;28;20217;-62
2023/09/10 06:25:37;;;;;;;4.47;3.55;;;;;;;;;;5114928;28;20208;-64
2023/09/10 06:28:04;;;;;;;6.60;3.42;;;;;;;;;;5112325;28;20201;-65
2023/09/10 06:30:31;;;;;;;5.05;3.83;;;;;;;;;;5101388;28;20202;-64
2023/09/10 06:32:59;;;;;;;7.30;3.25;;;;;;;;;;5106992;28;20247;-65
2023/09/10 06:35:26;;;;;;;3.33;2.58;;;;;;;;;;5106375;28;20233;-64
2023/09/10 06:37:52;;;;;;;6.65;3.70;;;;;;;;;;5111959;28;20273;-64
2023/09/10 06:40:19;;;;;;;5.07;3.65;;;;;;;;;;5111983;28;20254;-64
2023/09/10 06:42:45;;;;;;;4.07;2.67;;;;;;;;;;5111570;28;20228;-64
2023/09/10 06:45:12;;;;;;;5.90;3.50;;;;;;;;;;5111158;28;20254;-66
2023/09/10 06:47:38;;;;;;;10.13;3.58;;;;;;;;;;5111899;28;20261;-65
2023/09/10 06:50:07;;;;;;;3.42;3.13;;;;;;;;;;5111619;28;20228;-65
2023/09/10 06:52:33;;;;;;;4.72;3.17;;;;;;;;;;5111420;28;20654;-65
2023/09/10 06:54:59;;;;;;;5.72;3.80;;;;;;;;;;5111640;28;20674;-66
2023/09/10 06:57:27;;;;;;;8.00;3.75;;;;;;;;;;5111912;28;20262;-66
2023/09/10 06:59:53;;;;;;;5.60;3.45;;;;;;;;;;5111883;28;20287;-66
2023/09/10 07:02:20;;;;;;;3.47;2.80;;;;;;;;;;5111536;28;20201;-66
2023/09/10 07:04:48;;;;;;;4.15;3.20;;;;;;;;;;5111213;28;20225;-65
2023/09/10 07:07:16;;;;;;;3.92;3.63;;;;;;;;;;5111493;28;20684;-65
2023/09/10 07:09:42;;;;;;;6.53;3.63;;;;;;;;;;5111128;28;20559;-66
2023/09/10 07:12:08;;;;;;;4.13;3.45;;;;;;;;;;5111248;28;20585;-66
2023/09/10 07:14:35;;;;;;;3.88;3.40;;;;;;;;;;5111333;28;20201;-65
2023/09/10 07:17:01;;;;;;;4.90;3.53;;;;;;;;;;5111739;28;20232;-65
2023/09/10 07:19:28;;;;;;;4.55;3.80;;;;;;;;;;5111152;28;20230;-66
2023/09/10 07:21:54;;;;;;;5.90;3.67;;;;;;;;;;5111345;28;20228;-65
2023/09/10 07:24:22;;;;;;;8.70;3.60;;;;;;;;;;5110937;28;20220;-65
2023/09/10 07:26:48;;;;;;;4.32;3.65;;;;;;;;;;5111085;28;20205;-65
2023/09/10 07:29:16;;;;;;;3.33;3.00;;;;;;;;;;5110774;28;20198;-66
2023/09/10 07:31:41;;;;;;;3.90;3.60;;;;;;;;;;5110856;28;20749;-65
2023/09/10 07:34:09;;;;;;;5.22;3.88;;;;;;;;;;5110386;28;20360;-66
2023/09/10 07:36:35;;;;;;;5.53;3.33;;;;;;;;;;5111026;28;20192;-64
2023/09/10 07:39:02;;;;;;;3.65;3.40;;;;;;;;;;5110532;28;20193;-64
2023/09/10 07:41:29;;;;;;;4.30;3.25;;;;;;;;;;5111009;28;20770;-66
2023/09/10 07:43:56;;;;;;;5.53;3.40;;;;;;;;;;5110043;28;20252;-68
2023/09/10 07:46:22;;;;;;;4.78;3.38;;;;;;;;;;5111308;28;20205;-67
2023/09/10 07:48:49;;;;;;;6.13;3.85;;;;;;;;;;5110561;28;20205;-66
2023/09/10 07:51:15;;;;;;;4.93;3.28;;;;;;;;;;5102694;28;20232;-66
2023/09/10 07:53:42;;;;;;;5.10;4.28;;;;;;;;;;5107128;28;20778;-66
2023/09/10 07:56:08;;;;;;;4.15;3.85;;;;;;;45.41;nan;95534.22;5109412;28;20235;-68
2023/09/10 07:58:36;;;;;;;6.07;4.15;;;;;;;46.36;nan;95535.03;5108293;28;20265;-66
2023/09/10 08:01:03;;;;;;;5.93;3.97;;;;;;;46.27;nan;95535.78;5108895;28;20266;-66
2023/09/10 08:03:29;;;;;;;6.72;3.65;;;;;;;;;;5108014;28;20265;-67
2023/09/10 08:05:56;;;;;;;6.55;2.90;;;;;;;45.72;nan;95535.25;5109280;28;20257;-67
2023/09/10 08:08:23;;;;;;;5.28;3.70;;;;;;;46.00;nan;95536.75;5106538;28;20208;-68
2023/09/10 08:10:50;;;;;;;6.40;3.50;;;;;;;46.00;nan;95534.09;5109136;28;20200;-67
2023/09/10 08:13:16;;;;;;;4.63;3.72;;;;;;;46.57;nan;95540.44;5104728;28;20200;-65
2023/09/10 08:15:44;;;;;;;7.43;6.93;;;;;;;;;;5079172;28;20204;-68
2023/09/10 08:18:12;;;;;;;8.65;3.75;;;;;;;43.59;nan;95549.03;5101393;28;20721;-67
2023/09/10 08:20:39;;;;;;;38.05;29.40;;;;;;;;;;5101040;28;20205;-71
2023/09/10 08:23:06;;;;;;;6.57;3.72;;;;;;;44.59;nan;95531.06;5101221;28;20724;-69
2023/09/10 08:25:33;;;;;;;6.78;3.70;;;;;;;;;;5101703;28;20751;-70
2023/09/10 08:27:59;;;;;;;4.13;3.72;;;;;;;;;;5101355;28;20204;-69
2023/09/10 08:30:26;;;;;;;3.90;3.58;;;;;;;41.11;nan;95534.22;5102253;28;20201;-68
2023/09/10 08:32:54;;;;;;;3.80;3.50;;;;;;;;;;5102247;28;20351;-68
2023/09/10 08:35:22;;;;;;;4.20;3.25;;;;;;;;;;5101088;28;20702;-67
2023/09/10 08:37:48;;;;;;;3.55;3.10;;;;;;;;;;5102390;28;20201;-67
2023/09/10 08:40:15;;;;;;;13.25;3.78;;;;;;;;;;5105809;28;20208;-66
2023/09/10 08:42:45;;;;;;;4.57;3.33;;;;;;;;;;5106744;28;20208;-68
2023/09/10 08:45:12;;;;;;;4.07;3.45;;;;;;;;;;5105440;28;20647;-68
2023/09/10 08:47:40;;;;;;;5.90;3.22;;;;;;;;;;5106157;28;20296;-63
2023/09/10 08:50:10;;;;;;;6.53;5.28;;;;;;;;;;5105304;28;20250;-65
2023/09/10 08:52:38;;;;;;;5.53;3.75;;;;;;;;;;5105929;28;20223;-64
2023/09/10 08:55:05;;;;;;;4.32;3.85;;;;;;;;;;5105824;28;20652;-64
2023/09/10 08:57:31;;;;;;;5.03;3.60;;;;;;;;;;5105551;28;20201;-65
2023/09/10 08:59:58;;;;;;;6.75;3.70;;;;;;;;;;5107048;28;20229;-64
2023/09/10 09:02:25;;;;;;;4.93;3.35;;;;;;;;;;5105069;28;20236;-63
2023/09/10 09:04:51;;;;;;;4.03;3.72;;;;;;;;;;5104938;28;20278;-64
2023/09/10 09:07:22;;;;;;;6.22;3.05;;;;;;;31.71;nan;95523.72;5106504;28;20231;-62
2023/09/10 09:09:50;;;;;;;3.83;3.13;;;;;;;;;;5106891;28;20277;-64
2023/09/10 09:12:18;;;;;;;6.53;3.30;;;;;;;;;;5106820;28;20193;-64
2023/09/10 09:14:47;;;;;;;5.72;3.47;;;;;;;;;;5103917;28;20212;-63
2023/09/10 09:17:14;;;;;;;3.92;3.13;;;;;;;;;;5105137;28;20209;-64
2023/09/10 09:19:42;;;;;;;6.32;3.47;;;;;;;;;;5106514;28;20201;-66
2023/09/10 09:22:08;;;;;;;4.22;3.33;;;;;;;;;;5106589;28;20269;-64
2023/09/10 09:24:36;;;;;;;4.80;3.42;;;;;;;;;;5106556;28;20324;-65
2023/09/10 09:27:03;;;;;;;4.15;3.55;;;;;;;;;;5105416;28;20221;-65
2023/09/10 09:29:29;;;;;;;4.32;3.45;;;;;;;;;;5106651;28;20228;-66
2023/09/10 09:31:56;;;;;;;4.95;3.05;;;;;;;;;;5105954;28;20204;-65
2023/09/10 09:34:22;;;;;;;5.88;3.45;;;;;;;;;;5105705;28;20282;-65
2023/09/10 09:36:49;;;;;;;10.02;4.53;;;;;;;;;;5105400;28;20197;-63
2023/09/10 09:39:17;;;;;;;4.18;3.30;;;;;;;;;;5105830;28;20198;-66
2023/09/10 09:41:48;;;;;;;4.20;3.75;;;;;;;;;;5105954;28;20615;-65
2023/09/10 09:44:14;;;;;;;6.97;5.45;;;;;;;;;;5105937;28;20228;-65
2023/09/10 09:46:41;;;;;;;5.18;3.40;;;;;;;;;;5105425;28;20270;-65
2023/09/10 09:49:07;;;;;;;5.68;3.60;;;;;;;;;;5104454;28;20298;-65
2023/09/10 09:51:34;;;;;;;5.82;3.10;;;;;;;;;;5105554;28;20666;-65
2023/09/10 09:54:01;;;;;;;3.70;3.50;;;;;;;;;;5105758;28;20270;-65
2023/09/10 09:56:28;;;;;;;5.20;4.00;;;;;;;;;;5104942;28;20204;-64
2023/09/10 09:58:58;;;;;;;4.70;3.50;;;;;;;;;;5105788;28;20205;-64
2023/09/10 10:01:25;;;;;;;7.05;3.25;;;;;;;;;;5105414;28;20588;-65
2023/09/10 10:03:52;;;;;;;4.07;3.70;;;;;;;;;;5105638;28;20228;-64
2023/09/10 10:06:19;;;;;;;4.88;3.80;;;;;;;;;;5105256;28;20228;-61
2023/09/10 10:08:48;;;;;;;3.65;3.35;;;;;;;;;;5105712;28;20209;-64
2023/09/10 10:11:15;;;;;;;5.28;3.70;;;;;;;;;;5105863;28;20212;-66
2023/09/10 10:13:42;;;;;;;4.35;3.83;;;;;;;;;;5105018;28;20274;-65
2023/09/10 10:16:10;;;;;;;4.75;4.35;;;;;;;;;;5108545;28;20201;-63
2023/09/10 10:18:37;;;;;;;6.20;3.65;;;;;;;;;;5107309;28;20197;-64
2023/09/10 10:21:05;;;;;;;4.13;3.60;;;;;;;;;;5107215;28;20201;-63
2023/09/10 10:23:32;;;;;;;5.03;3.63;;;;;;;;;;5107411;28;20285;-64
2023/09/10 10:26:04;;;;;;;7.40;4.38;;;;;;;;;;5107011;28;20221;-65
2023/09/10 10:28:31;;;;;;;4.97;3.30;;;;;;;;;;5106085;28;20201;-66
2023/09/10 10:31:03;;;;;;;5.25;4.10;;;;;;;;;;5105270;28;20205;-62
2023/09/10 10:33:31;;;;;;;3.97;3.67;;;;;;;;;;5106705;28;20204;-66
2023/09/10 10:36:04;;;;;;;5.00;4.18;;;;;;;;;;5106708;28;20224;-64
2023/09/10 10:38:33;;;;;;;5.70;3.58;;;;;;;;;;5105977;28;20258;-65
2023/09/10 10:41:02;;;;;;;4.97;4.07;;;;;;;;;;5106968;28;20278;-63
2023/09/10 10:43:30;;;;;;;4.57;4.28;;;;;;;;;;5104791;28;20201;-64
2023/09/10 10:45:57;;;;;;;4.00;3.70;;;;;;;;;;5105362;28;20293;-65
2023/09/10 10:48:26;;;;;;;4.57;4.05;;;;;;;;;;5104124;28;20262;-65
2023/09/10 10:50:57;;;;;;;7.22;3.47;;;;;;;;;;5105391;28;20201;-64
2023/09/10 10:53:24;;;;;;;4.43;3.80;;;;;;;;;;5104168;28;20708;-64
2023/09/10 10:55:52;;;;;;;4.32;3.63;;;;;;;;;;5105046;28;20745;-65
2023/09/10 10:58:20;;;;;;;3.90;3.60;;;;;;;;;;5103613;28;20236;-66
2023/09/10 11:00:48;;;;;;;4.18;3.78;;;;;;;;;;5105251;28;20197;-64
2023/09/10 11:03:15;;;;;;;5.70;3.20;;;;;;;;;;5104335;28;20205;-65
2023/09/10 11:06:04;;;;;;;4.68;3.72;;;;;;;;;;5104977;28;20656;-65
2023/09/10 11:08:32;;;;;;;3.33;3.03;;;;;;;;;;5092295;28;20270;-66
2023/09/10 11:10:59;;;;;;;4.18;3.88;;;;;;;;;;5104228;28;20627;-66
2023/09/10 11:13:26;;;;;;;5.47;3.90;;;;;;;;;;5103951;28;20666;-63
2023/09/10 11:16:11;;;;;;;3.53;3.28;;;;;;;;;;5104013;28;20197;-64
2023/09/10 11:18:41;;;;;;;4.57;3.45;;;;;;;;;;5103746;28;20208;-64
2023/09/10 11:21:08;;;;;;;4.38;3.38;;;;;;;;;;5103688;28;20236;-64
2023/09/10 11:23:36;;;;;;;3.90;3.53;;;;;;;;;;5104282;28;20217;-64
2023/09/10 11:26:21;;;;;;;4.25;3.83;;;;;;;;;;5103969;28;20278;-64
2023/09/10 11:28:49;;;;;;;4.30;3.90;;;;;;;;;;5103705;28;20193;-62
2023/09/10 11:31:34;;;;;;;4.65;4.13;;;;;;;;;;5104817;28;20197;-65
2023/09/10 11:34:23;;;;;;;4.82;4.25;;;;;;;;;;5093417;28;20253;-65
2023/09/10 11:36:51;;;;;;;3.80;3.58;;;;;;;;;;5089872;28;20197;-64
2023/09/10 11:39:20;;;;;;;3.28;2.83;;;;;;;;;;5103596;28;20250;-66
2023/09/10 11:41:48;;;;;;;4.07;3.78;;;;;;;;;;5104120;28;20224;-65
2023/09/10 11:44:14;;;;;;;4.38;4.00;;;;;;;;;;5104714;28;20193;-65
2023/09/10 11:46:41;;;;;;;6.13;4.32;;;;;;;;;;5105317;28;20196;-63
2023/09/10 11:49:08;;;;;;;3.75;3.45;;;;;;;;;;5105057;28;20277;-64
2023/09/10 11:51:41;;;;;;;6.68;3.97;;;;;;;;;;5104423;28;20205;-64
2023/09/10 11:54:07;;;;;;;3.67;3.42;;;;;;;;;;5103327;28;20251;-65
2023/09/10 11:56:35;;;;;;;4.50;3.40;;;;;;;;;;5103632;28;20232;-63
2023/09/10 11:59:02;;;;;;;4.88;4.07;;;;;;;;;;5103422;28;20261;-63
2023/09/10 12:01:28;;;;;;;7.18;3.65;;;;;;;;;;5103615;28;20669;-64
2023/09/10 12:03:55;;;;;;;5.68;4.35;;;;;;;;;;5103731;28;20228;-66
2023/09/10 12:06:21;;;;;;;4.13;3.80;;;;;;;;;;5101858;28;20216;-65
2023/09/10 12:08:48;;;;;;;8.02;3.60;;;;;;;;;;5101220;28;20216;-65
2023/09/10 12:11:17;;;;;;;9.02;3.22;;;;;;;;;;5103815;28;20204;-63
2023/09/10 12:13:45;;;;;;;3.72;3.42;;;;;;;;;;5102695;28;20196;-63
2023/09/10 12:16:12;;;;;;;5.50;4.13;;;;;;;;;;5101927;28;20234;-64
2023/09/10 12:18:39;;;;;;;5.05;3.80;;;;;;;;;;5105464;28;20237;-64
2023/09/10 12:21:06;;;;;;;4.10;3.90;;;;;;;;;;5104600;28;20208;-64
2023/09/10 12:23:33;;;;;;;4.65;4.25;;;;;;;;;;5104663;28;20203;-65
2023/09/10 12:26:00;;;;;;;4.05;3.75;;;;;;;;;;5104482;28;20277;-64
2023/09/10 12:28:27;;;;;;;5.78;3.97;;;;;;;;;;5104476;28;20507;-63
2023/09/10 12:30:55;;;;;;;4.63;4.10;;;;;;;;;;5105571;28;20250;-64
2023/09/10 12:33:22;;;;;;;8.63;3.63;;;;;;;;;;5103783;28;20255;-64
2023/09/10 12:35:48;;;;;;;8.63;3.83;;;;;;;;;;5102947;28;20224;-64
2023/09/10 12:38:15;;;;;;;5.00;4.18;;;;;;;;;;5102645;28;20269;-66
2023/09/10 12:40:42;;;;;;;4.45;4.15;;;;;;;;;;5102949;28;20733;-67
2023/09/10 12:43:08;;;;;;;7.97;4.55;;;;;;;;;;5103372;28;20228;-65
2023/09/10 12:45:35;;;;;;;5.03;4.57;;;;;;;;;;5103347;28;20228;-64
2023/09/10 12:48:03;;;;;;;10.02;4.50;;;;;;;;;;5102785;28;20237;-65
2023/09/10 12:50:30;;;;;;;4.07;3.75;;;;;;;;;;5102741;28;20197;-63
2023/09/10 12:52:58;;;;;;;4.50;3.75;;;;;;;;;;5103553;28;20221;-65
2023/09/10 12:55:25;;;;;;;6.53;4.20;;;;;;;;;;5103522;28;20201;-64
2023/09/10 12:57:54;;;;;;;4.53;3.55;;;;;;;;;;5102844;28;20232;-64
2023/09/10 13:00:21;;;;;;;4.35;3.85;;;;;;;;;;5103485;28;20239;-65
2023/09/10 13:02:48;;;;;;;3.72;3.42;;;;;;;;;;5103384;28;20205;-63
2023/09/10 13:05:16;;;;;;;3.65;3.40;;;;;;;;;;5102273;28;20229;-64
2023/09/10 13:07:42;;;;;;;5.53;3.70;;;;;;;;;;5101896;28;21710;-64
2023/09/10 13:10:09;;;;;;;4.20;3.90;;;;;;;;;;5103084;28;20280;-64
2023/09/10 13:12:36;;;;;;;3.58;3.38;;;;;;;;;;5102714;28;20201;-65
2023/09/10 13:15:03;;;;;;;3.90;3.50;;;;;;;;;;5101758;28;20196;-66
2023/09/10 13:17:30;;;;;;;8.70;4.50;;;;;;;;;;5102540;28;20292;-66
2023/09/10 13:19:56;;;;;;;4.38;4.03;;;;;;;;;;5102620;28;20216;-66
2023/09/10 13:22:24;;;;;;;4.15;3.85;;;;;;;;;;5102971;28;20509;-62
2023/09/10 13:24:50;;;;;;;6.13;4.80;;;;;;;;;;5105513;28;20221;-64
2023/09/10 13:27:17;;;;;;;5.03;4.60;;;;;;;;;;5105923;28;20713;-63
2023/09/10 13:29:44;;;;;;;8.02;4.40;;;;;;;;;;5105987;28;20204;-66
2023/09/10 13:32:10;;;;;;;8.63;5.47;;;;;;;;;;5106403;28;20211;-62
2023/09/10 13:34:37;;;;;;;9.07;4.78;;;;;;;;;;5106191;28;20706;-68
2023/09/10 13:37:03;;;;;;;7.20;4.30;;;;;;;;;;5105098;28;20201;-64
2023/09/10 13:39:32;;;;;;;5.45;4.50;;;;;;;;;;5106610;28;20284;-63
2023/09/10 13:41:58;;;;;;;5.03;3.40;;;;;;;;;;5106284;28;20201;-64
2023/09/10 13:44:24;;;;;;;7.07;3.95;;;;;;;;;;5106109;28;21536;-65
2023/09/10 13:46:51;;;;;;;5.82;4.47;;;;;;;;;;5105546;28;20281;-64
2023/09/10 13:49:17;;;;;;;3.78;3.47;;;;;;;;;;5106220;28;20811;-63
2023/09/10 13:51:44;;;;;;;4.32;3.92;;;;;;;;;;5104148;28;20618;-64
2023/09/10 13:54:10;;;;;;;6.50;3.55;;;;;;;;;;5104167;28;20286;-64
2023/09/10 13:56:38;;;;;;;6.93;3.90;;;;;;;;;;5103288;28;20257;-63
2023/09/10 13:59:05;;;;;;;4.70;4.35;;;;;;;;;;5103611;28;20241;-63